createdAt,value
2022-11-15T00:00:15.876Z,998.7
2022-11-15T00:02:44.138Z,998.7
2022-11-15T00:05:12.375Z,996.2
2022-11-15T00:08:17.828Z,998.7
2022-11-15T00:10:45.923Z,998.7
2022-11-15T00:13:14.181Z,998.6
2022-11-15T00:15:42.445Z,998.7
2022-11-15T00:18:10.661Z,998.6
2022-11-15T00:21:15.982Z,998.6
2022-11-15T00:23:44.261Z,998.7
2022-11-15T00:26:12.492Z,998.8
2022-11-15T00:29:17.802Z,998.7
2022-11-15T00:31:46.032Z,998.7
2022-11-15T00:34:14.288Z,998.6
2022-11-15T00:36:42.555Z,998.6
2022-11-15T00:39:10.778Z,998.6
2022-11-15T00:42:16.087Z,998.6
2022-11-15T00:44:44.329Z,999.1
2022-11-15T00:47:12.600Z,998.6
2022-11-15T00:51:02.532Z,998.6
2022-11-15T00:53:15.018Z,998.6
2022-11-15T00:55:43.262Z,998.5
2022-11-15T00:58:11.503Z,998.5
2022-11-15T01:01:16.926Z,998.5
2022-11-15T01:03:45.060Z,998.5
2022-11-15T01:06:13.308Z,998.5
2022-11-15T01:09:18.638Z,998.5
2022-11-15T01:11:46.888Z,998.5
2022-11-15T01:14:15.096Z,998.4
2022-11-15T01:16:43.415Z,998.6
2022-11-15T01:19:48.668Z,998.5
2022-11-15T01:22:16.904Z,998.4
2022-11-15T01:24:45.188Z,998.4
2022-11-15T01:27:13.414Z,998.4
2022-11-15T01:30:18.746Z,998.4
2022-11-15T01:32:47.012Z,998.4
2022-11-15T01:35:15.201Z,998.4
2022-11-15T01:38:57.642Z,998.3
2022-11-15T01:42:02.884Z,998.2
2022-11-15T01:45:08.212Z,998.1
2022-11-15T01:48:13.542Z,998.1
2022-11-15T01:51:10.636Z,998.1
2022-11-15T01:54:15.966Z,998.1
2022-11-15T01:56:44.205Z,998.1
2022-11-15T01:59:12.456Z,995.6
2022-11-15T02:02:17.775Z,998.2
2022-11-15T02:04:45.979Z,998.1
2022-11-15T02:07:51.314Z,998.1
2022-11-15T02:10:56.629Z,998
2022-11-15T02:14:39.016Z,997.9
2022-11-15T02:17:07.251Z,997.8
2022-11-15T02:19:35.470Z,997.8
2022-11-15T02:24:31.998Z,997.7
2022-11-15T02:28:14.337Z,997.7
2022-11-15T02:30:42.768Z,997.7
2022-11-15T02:33:10.838Z,997.8
2022-11-15T02:36:16.132Z,997.7
2022-11-15T02:38:44.406Z,998.4
2022-11-15T02:41:12.670Z,997.7
2022-11-15T02:44:55.020Z,997.7
2022-11-15T02:48:37.388Z,997.6
2022-11-15T02:53:34.137Z,997.5
2022-11-15T02:59:07.403Z,997.5
2022-11-15T03:02:04.559Z,997.5
2022-11-15T03:05:09.895Z,997.4
2022-11-15T03:08:15.181Z,997.5
2022-11-15T03:10:43.408Z,997.4
2022-11-15T03:13:11.694Z,997.5
2022-11-15T03:16:54.034Z,997.5
2022-11-15T03:19:59.350Z,997.4
2022-11-15T03:23:04.669Z,997.4
2022-11-15T03:26:09.982Z,997.4
2022-11-15T03:29:15.273Z,997.5
2022-11-15T03:31:48.679Z,997.5
2022-11-15T03:34:11.792Z,997.5
2022-11-15T03:37:17.124Z,997.5
2022-11-15T03:39:45.318Z,997.5
2022-11-15T03:42:13.565Z,997.5
2022-11-15T03:45:18.871Z,997.5
2022-11-15T03:47:47.157Z,997.5
2022-11-15T03:50:15.398Z,997.5
2022-11-15T03:52:43.631Z,997.4
2022-11-15T03:55:11.877Z,997.4
2022-11-15T03:58:17.180Z,997.5
2022-11-15T04:01:14.378Z,997.4
2022-11-15T04:04:19.623Z,997.4
2022-11-15T04:06:47.900Z,997.3
2022-11-15T04:09:16.152Z,997.5
2022-11-15T04:11:44.384Z,997.6
2022-11-15T04:14:12.622Z,997.5
2022-11-15T04:17:54.970Z,997.5
2022-11-15T04:21:00.292Z,997.4
2022-11-15T04:24:05.625Z,997.4
2022-11-15T04:27:10.902Z,997.4
2022-11-15T04:30:16.225Z,997.3
2022-11-15T04:32:44.454Z,997.3
2022-11-15T04:35:12.713Z,997.1
2022-11-15T04:38:55.070Z,997.2
2022-11-15T04:42:00.438Z,997.2
2022-11-15T04:45:05.686Z,997.3
2022-11-15T04:48:11.011Z,997.2
2022-11-15T04:51:16.327Z,997.2
2022-11-15T04:53:44.572Z,997.2
2022-11-15T04:56:12.824Z,997.2
2022-11-15T04:59:18.102Z,997.2
2022-11-15T05:01:42.083Z,997.2
2022-11-15T05:04:06.400Z,997.2
2022-11-15T05:07:11.762Z,997.1
2022-11-15T05:10:17.041Z,997.1
2022-11-15T05:12:45.293Z,997.1
2022-11-15T05:15:13.512Z,997.1
2022-11-15T05:18:23.231Z,997.1
2022-11-15T05:20:47.099Z,997.1
2022-11-15T05:23:15.318Z,997
2022-11-15T05:25:43.609Z,997
2022-11-15T05:28:11.829Z,996.9
2022-11-15T05:31:17.164Z,996.9
2022-11-15T05:33:45.407Z,996.9
2022-11-15T05:36:13.673Z,996.9
2022-11-15T05:39:18.936Z,996.9
2022-11-15T05:41:47.227Z,996.9
2022-11-15T05:44:52.506Z,996.8
2022-11-15T05:47:57.814Z,996.8
2022-11-15T05:51:03.116Z,996.8
2022-11-15T05:54:45.476Z,996.8
2022-11-15T06:01:33.171Z,996.9
2022-11-15T06:06:29.728Z,996.9
2022-11-15T06:10:12.029Z,996.9
2022-11-15T06:13:09.134Z,996.9
2022-11-15T06:16:14.435Z,996.8
2022-11-15T06:18:42.688Z,996.9
2022-11-15T06:21:10.954Z,996.9
2022-11-15T06:24:16.291Z,996.9
2022-11-15T06:26:44.499Z,996.9
2022-11-15T06:29:12.770Z,996.8
2022-11-15T06:32:18.071Z,996.9
2022-11-15T06:34:46.332Z,996.8
2022-11-15T06:37:14.576Z,996.9
2022-11-15T06:39:42.835Z,996.8
2022-11-15T06:42:11.081Z,996.9
2022-11-15T06:45:16.358Z,996.9
2022-11-15T06:47:44.674Z,996.9
2022-11-15T06:54:32.337Z,996.9
2022-11-15T06:59:28.808Z,996.9
2022-11-15T07:06:16.493Z,997
2022-11-15T07:08:44.723Z,996.9
2022-11-15T07:11:12.978Z,996.9
2022-11-15T07:14:10.086Z,996.8
2022-11-15T07:17:15.386Z,996.9
2022-11-15T07:19:43.617Z,996.9
2022-11-15T07:22:11.871Z,996.8
2022-11-15T07:25:17.232Z,996.8
2022-11-15T07:27:45.437Z,996.8
2022-11-15T07:30:15.611Z,996.9
2022-11-15T07:33:19.009Z,996.9
2022-11-15T07:35:47.268Z,996.9
2022-11-15T07:38:15.486Z,996.9
2022-11-15T07:40:43.756Z,996.9
2022-11-15T07:43:12.013Z,996.9
2022-11-15T07:46:17.305Z,996.9
2022-11-15T07:48:45.914Z,996.9
2022-11-15T07:51:14.266Z,996.9
2022-11-15T07:54:19.100Z,996.9
2022-11-15T07:56:47.365Z,996.9
2022-11-15T07:59:15.606Z,996.9
2022-11-15T08:01:43.975Z,996.9
2022-11-15T08:04:12.137Z,996.1
2022-11-15T08:07:54.447Z,996.9
2022-11-15T08:10:59.778Z,996.8
2022-11-15T08:13:56.883Z,996.8
2022-11-15T08:18:16.334Z,996.7
2022-11-15T08:20:44.577Z,996.7
2022-11-15T08:23:12.801Z,996.6
2022-11-15T08:26:18.132Z,996.6
2022-11-15T08:28:46.369Z,996.5
2022-11-15T08:31:14.626Z,996.6
2022-11-15T08:33:42.848Z,996.6
2022-11-15T08:36:11.125Z,996.7
2022-11-15T08:39:16.461Z,996.7
2022-11-15T08:42:21.754Z,996.7
2022-11-15T08:44:50.015Z,996.8
2022-11-15T08:47:18.256Z,996.8
2022-11-15T08:49:46.509Z,996.7
2022-11-15T08:52:14.696Z,996.7
2022-11-15T08:55:23.475Z,996.8
2022-11-15T08:57:48.325Z,996.7
2022-11-15T09:00:16.539Z,996.8
2022-11-15T09:02:44.769Z,996.7
2022-11-15T09:05:13.001Z,996.8
2022-11-15T09:08:45.880Z,996.7
2022-11-15T09:10:46.600Z,996.7
2022-11-15T09:13:06.635Z,996.7
2022-11-15T09:16:11.958Z,996.7
2022-11-15T09:19:17.257Z,996.7
2022-11-15T09:21:45.529Z,996.7
2022-11-15T09:24:13.773Z,996.7
2022-11-15T09:27:19.087Z,996.7
2022-11-15T09:29:47.347Z,996.7
2022-11-15T09:32:15.571Z,996.7
2022-11-15T09:34:43.800Z,996.7
2022-11-15T09:37:12.031Z,996.7
2022-11-15T09:40:17.376Z,996.7
2022-11-15T09:42:45.629Z,996.7
2022-11-15T09:45:13.868Z,996.7
2022-11-15T09:48:19.201Z,996.7
2022-11-15T09:50:47.454Z,996.7
2022-11-15T09:53:15.696Z,996.6
2022-11-15T09:55:43.895Z,996.7
2022-11-15T09:58:12.173Z,996.7
2022-11-15T10:01:17.515Z,996.6
2022-11-15T10:03:45.737Z,996.7
2022-11-15T10:06:13.946Z,996.6
2022-11-15T10:09:22.802Z,996.5
2022-11-15T10:11:47.546Z,996.5
2022-11-15T10:14:07.587Z,996.4
2022-11-15T10:17:12.878Z,996.4
2022-11-15T10:20:55.248Z,996.3
2022-11-15T10:24:00.546Z,996.4
2022-11-15T10:27:05.868Z,996.3
2022-11-15T10:30:11.183Z,996.2
2022-11-15T10:33:16.519Z,996.2
2022-11-15T10:35:44.745Z,996.1
2022-11-15T10:38:12.985Z,996
2022-11-15T10:41:18.324Z,996
2022-11-15T10:43:46.542Z,995.9
2022-11-15T10:46:39.711Z,995.9
2022-11-15T10:48:43.064Z,995.9
2022-11-15T10:51:11.271Z,995.8
2022-11-15T10:54:20.020Z,995.8
2022-11-15T10:56:44.856Z,995.8
2022-11-15T10:59:13.107Z,995.7
2022-11-15T11:02:18.390Z,995.6
2022-11-15T11:04:46.696Z,995.6
2022-11-15T11:07:14.937Z,995.5
2022-11-15T11:09:43.190Z,995.5
2022-11-15T11:12:11.394Z,995.5
2022-11-15T11:15:08.522Z,995.4
2022-11-15T11:18:13.825Z,995.4
2022-11-15T11:21:19.126Z,995.4
2022-11-15T11:23:47.380Z,995.4
2022-11-15T11:26:15.616Z,995.4
2022-11-15T11:28:43.908Z,995.3
2022-11-15T11:31:12.109Z,995.3
2022-11-15T11:34:17.462Z,995.3
2022-11-15T11:36:45.707Z,995.3
2022-11-15T11:39:13.949Z,995.2
2022-11-15T11:42:19.217Z,995.1
2022-11-15T11:44:47.504Z,995.2
2022-11-15T11:47:15.738Z,995.1
2022-11-15T11:49:43.943Z,995.1
2022-11-15T11:52:12.202Z,992.7
2022-11-15T11:55:17.776Z,995
2022-11-15T11:57:45.818Z,994.9
2022-11-15T12:00:14.039Z,994.8
2022-11-15T12:03:19.419Z,994.7
2022-11-15T12:05:47.614Z,994.7
2022-11-15T12:08:15.849Z,994.6
2022-11-15T12:10:44.077Z,994.7
2022-11-15T12:13:12.297Z,992.2
2022-11-15T12:16:46.499Z,994.7
2022-11-15T12:19:14.777Z,994.6
2022-11-15T12:21:43.019Z,994.6
2022-11-15T12:24:11.226Z,994.5
2022-11-15T12:27:18.626Z,994.4
2022-11-15T12:29:44.828Z,994.4
2022-11-15T12:34:07.196Z,994.4
2022-11-15T12:37:09.541Z,994.4
2022-11-15T12:40:14.882Z,994.3
2022-11-15T12:42:43.119Z,994.3
2022-11-15T12:45:11.346Z,994.2
2022-11-15T12:48:16.650Z,994.2
2022-11-15T12:50:44.913Z,994.2
2022-11-15T12:53:50.200Z,994.1
2022-11-15T12:56:18.464Z,994.2
2022-11-15T12:58:46.739Z,994.1
2022-11-15T13:01:15.032Z,994
2022-11-15T13:03:43.238Z,994
2022-11-15T13:06:11.484Z,993.9
2022-11-15T13:09:16.769Z,993.9
2022-11-15T13:11:45.053Z,993.9
2022-11-15T13:14:13.239Z,993.8
2022-11-15T13:17:55.639Z,993.8
2022-11-15T13:20:23.895Z,993.8
2022-11-15T13:28:09.296Z,993.7
2022-11-15T13:32:28.745Z,993.6
2022-11-15T13:34:57.042Z,993.6
2022-11-15T13:38:02.289Z,993.6
2022-11-15T13:41:07.645Z,993.5
2022-11-15T13:48:32.591Z,993.3
2022-11-15T13:53:28.827Z,993.2
2022-11-15T13:57:48.283Z,993.4
2022-11-15T14:00:16.629Z,993
2022-11-15T14:02:44.748Z,993
2022-11-15T14:05:13.008Z,992.9
2022-11-15T14:08:18.301Z,992.9
2022-11-15T14:14:28.935Z,992.9
2022-11-15T14:20:39.577Z,992.8
2022-11-15T14:23:07.785Z,992.7
2022-11-15T14:26:10.341Z,992.7
2022-11-15T14:29:10.225Z,992.6
2022-11-15T14:32:15.575Z,992.6
2022-11-15T14:35:20.867Z,992.6
2022-11-15T14:42:08.517Z,992.6
2022-11-15T14:48:19.192Z,992.5
2022-11-15T14:50:47.415Z,992.4
2022-11-15T14:53:15.667Z,992.4
2022-11-15T14:55:43.902Z,992.4
2022-11-15T15:02:31.569Z,992.4
2022-11-15T15:08:42.201Z,992.4
2022-11-15T15:11:47.514Z,992.5
2022-11-15T15:14:52.809Z,992.3
2022-11-15T15:17:58.143Z,992.3
2022-11-15T15:22:17.558Z,992.2
2022-11-15T15:29:42.327Z,992.1
2022-11-15T15:34:38.812Z,992
2022-11-15T15:36:58.824Z,992.1
2022-11-15T15:40:04.136Z,992.1
2022-11-15T15:43:09.489Z,992
2022-11-15T15:46:14.794Z,992
2022-11-15T15:50:34.202Z,992
2022-11-15T15:56:07.765Z,992
2022-11-15T16:01:04.310Z,992.1
2022-11-15T16:04:09.541Z,991.7
2022-11-15T16:07:14.956Z,991.7
2022-11-15T16:09:43.110Z,991.7
2022-11-15T16:12:11.366Z,991.6
2022-11-15T16:15:53.786Z,991.5
2022-11-15T16:18:59.060Z,991.5
2022-11-15T16:22:04.379Z,991.4
2022-11-15T16:25:09.657Z,991.4
2022-11-15T16:28:14.979Z,991.3
2022-11-15T16:30:43.288Z,991.3
2022-11-15T16:33:11.498Z,991.3
2022-11-15T16:36:16.789Z,991.2
2022-11-15T16:38:37.014Z,991.2
2022-11-15T16:41:05.100Z,991.2
2022-11-15T16:44:10.388Z,991.1
2022-11-15T16:47:15.717Z,991.1
2022-11-15T16:50:58.102Z,991.1
2022-11-15T16:54:03.384Z,991
2022-11-15T16:57:08.707Z,991.1
2022-11-15T17:00:14.019Z,991
2022-11-15T17:03:19.367Z,991
2022-11-15T17:05:47.593Z,991
2022-11-15T17:08:15.819Z,991
2022-11-15T17:10:44.064Z,991
2022-11-15T17:13:12.350Z,990.8
2022-11-15T17:16:17.629Z,990.9
2022-11-15T17:18:45.866Z,990.9
2022-11-15T17:21:14.126Z,990.8
2022-11-15T17:24:19.490Z,990.9
2022-11-15T17:26:47.721Z,990.9
2022-11-15T17:29:16.854Z,990.9
2022-11-15T17:31:44.240Z,990.8
2022-11-15T17:34:13.319Z,990.7
2022-11-15T17:36:40.684Z,990.8
2022-11-15T17:39:00.748Z,990.8
2022-11-15T17:42:06.025Z,990.8
2022-11-15T17:45:11.346Z,990.8
2022-11-15T17:48:32.366Z,990.7
2022-11-15T17:50:44.894Z,990.7
2022-11-15T17:53:13.154Z,990.7
2022-11-15T17:56:18.497Z,990.7
2022-11-15T17:58:46.696Z,990.7
2022-11-15T18:01:15.066Z,990.7
2022-11-15T18:03:43.222Z,990.7
2022-11-15T18:06:12.455Z,990.6
2022-11-15T18:09:16.761Z,990.6
2022-11-15T18:11:44.985Z,990.6
2022-11-15T18:14:13.283Z,990.6
2022-11-15T18:17:18.559Z,990.5
2022-11-15T18:19:46.791Z,990.5
2022-11-15T18:22:15.057Z,990.5
2022-11-15T18:24:43.324Z,990.5
2022-11-15T18:27:11.531Z,990.5
2022-11-15T18:30:16.907Z,990.4
2022-11-15T18:32:45.076Z,990.4
2022-11-15T18:35:13.378Z,990.4
2022-11-15T18:38:18.662Z,990.3
2022-11-15T18:40:38.733Z,990.4
2022-11-15T18:43:07.005Z,990.3
2022-11-15T18:46:12.307Z,990.2
2022-11-15T18:49:18.480Z,990.3
2022-11-15T18:51:45.844Z,990.3
2022-11-15T18:54:14.053Z,990.3
2022-11-15T18:57:19.356Z,990.2
2022-11-15T18:59:47.623Z,990.2
2022-11-15T19:02:15.892Z,990.2
2022-11-15T19:04:44.113Z,990.2
2022-11-15T19:07:12.476Z,990.1
2022-11-15T19:10:17.694Z,990.1
2022-11-15T19:12:45.942Z,990.1
2022-11-15T19:15:14.218Z,990.1
2022-11-15T19:18:19.503Z,990.1
2022-11-15T19:20:47.742Z,990.1
2022-11-15T19:23:15.994Z,990
2022-11-15T19:25:44.237Z,990
2022-11-15T19:28:12.526Z,989.8
2022-11-15T19:31:17.791Z,989.9
2022-11-15T19:33:46.037Z,989.9
2022-11-15T19:36:14.293Z,989.9
2022-11-15T19:39:11.436Z,989.9
2022-11-15T19:42:16.762Z,989.9
2022-11-15T19:44:44.971Z,989.9
2022-11-15T19:47:13.239Z,989.8
2022-11-15T19:50:18.524Z,989.8
2022-11-15T19:52:46.798Z,989.8
2022-11-15T19:55:14.997Z,989.8
2022-11-15T19:57:43.269Z,989.7
2022-11-15T20:00:11.579Z,989.7
2022-11-15T20:03:16.843Z,989.7
2022-11-15T20:05:45.050Z,989.6
2022-11-15T20:08:13.339Z,989.6
2022-11-15T20:11:18.600Z,989.7
2022-11-15T20:13:46.913Z,989.7
2022-11-15T20:16:15.098Z,989.6
2022-11-15T20:18:43.409Z,989.6
2022-11-15T20:21:11.593Z,989.6
2022-11-15T20:24:16.944Z,989.5
2022-11-15T20:26:45.186Z,989.5
2022-11-15T20:29:13.432Z,989.5
2022-11-15T20:32:18.701Z,989.5
2022-11-15T20:34:50.171Z,989.5
2022-11-15T20:37:15.216Z,989.5
2022-11-15T20:39:35.247Z,997.2
2022-11-15T20:42:03.563Z,989.4
2022-11-15T20:45:08.838Z,989.4
2022-11-15T20:48:14.142Z,989.4
2022-11-15T20:51:19.469Z,989.3
2022-11-15T20:53:47.758Z,989.4
2022-11-15T20:56:15.970Z,989.3
2022-11-15T20:58:44.174Z,989.3
2022-11-15T21:01:12.571Z,989.1
2022-11-15T21:04:17.761Z,989.3
2022-11-15T21:06:48.696Z,989.3
2022-11-15T21:09:14.221Z,989.4
2022-11-15T21:11:42.489Z,989.3
2022-11-15T21:14:10.731Z,989.4
2022-11-15T21:17:16.064Z,989.3
2022-11-15T21:19:44.310Z,989.3
2022-11-15T21:22:13.579Z,989.2
2022-11-15T21:25:17.871Z,989.3
2022-11-15T21:27:46.102Z,989.3
2022-11-15T21:30:14.437Z,989.3
2022-11-15T21:33:19.650Z,989.3
2022-11-15T21:35:47.918Z,989.3
2022-11-15T21:38:07.964Z,989.2
2022-11-15T21:41:13.272Z,989.2
2022-11-15T21:44:18.592Z,989.2
2022-11-15T21:46:46.818Z,989.2
2022-11-15T21:49:15.070Z,989.1
2022-11-15T21:51:43.307Z,989.1
2022-11-15T21:54:11.560Z,989
2022-11-15T21:57:16.878Z,989
2022-11-15T21:59:45.143Z,989
2022-11-15T22:02:13.397Z,988.9
2022-11-15T22:06:32.788Z,988.8
2022-11-15T22:09:01.054Z,988.8
2022-11-15T22:16:25.791Z,988.8
2022-11-15T22:18:54.038Z,988.7
2022-11-15T22:21:59.371Z,988.7
2022-11-15T22:25:04.642Z,988.8
2022-11-15T22:28:09.995Z,988.8
2022-11-15T22:31:15.290Z,988.8
2022-11-15T22:33:43.565Z,988.8
2022-11-15T22:36:11.776Z,988.7
2022-11-15T22:39:08.924Z,988.8
2022-11-15T22:42:14.607Z,988.7
2022-11-15T22:45:19.539Z,988.7
2022-11-15T22:47:47.774Z,988.7
2022-11-15T22:50:15.980Z,988.7
2022-11-15T22:52:44.248Z,988.7
2022-11-15T22:55:12.522Z,988.5
2022-11-15T22:58:17.841Z,988.6
2022-11-15T23:03:14.692Z,988.5
2022-11-15T23:06:19.599Z,988.5
2022-11-15T23:08:47.856Z,988.5
2022-11-15T23:11:16.147Z,988.5
2022-11-15T23:13:44.399Z,988.5
2022-11-15T23:16:12.626Z,988.3
2022-11-15T23:19:17.929Z,988.5
2022-11-15T23:21:46.197Z,988.4
2022-11-15T23:24:14.461Z,988.4
2022-11-15T23:27:19.767Z,988.4
2022-11-15T23:29:48.017Z,988.4
2022-11-15T23:32:16.247Z,988.4
2022-11-15T23:34:44.500Z,989.4
2022-11-15T23:37:12.711Z,988.4
2022-11-15T23:40:46.891Z,988.4
2022-11-15T23:43:15.242Z,988.4
2022-11-15T23:45:43.362Z,988.4
2022-11-15T23:48:11.623Z,988.4
2022-11-15T23:51:16.987Z,988.4
2022-11-15T23:53:45.202Z,988.4
2022-11-15T23:56:13.477Z,988.4
2022-11-15T23:59:18.763Z,988.3
